createdAt,value
2023-05-05T00:00:11.871Z,48.19
2023-05-05T00:01:11.879Z,48.20
2023-05-05T00:02:12.997Z,48.23
2023-05-05T00:03:13.208Z,48.19
2023-05-05T00:04:12.206Z,48.24
2023-05-05T00:05:13.170Z,48.20
2023-05-05T00:06:13.086Z,48.22
2023-05-05T00:07:12.203Z,48.21
2023-05-05T00:08:13.248Z,48.21
2023-05-05T00:09:12.224Z,48.21
2023-05-05T00:10:13.233Z,48.19
2023-05-05T00:11:13.389Z,48.23
2023-05-05T00:12:12.296Z,48.23
2023-05-05T00:13:13.574Z,48.21
2023-05-05T00:14:12.521Z,48.19
2023-05-05T00:15:12.494Z,48.25
2023-05-05T00:16:12.521Z,48.20
2023-05-05T00:17:12.601Z,48.22
2023-05-05T00:18:12.554Z,48.21
2023-05-05T00:19:13.637Z,48.23
2023-05-05T00:20:13.619Z,48.21
2023-05-05T00:21:12.727Z,48.18
2023-05-05T00:22:13.687Z,48.17
2023-05-05T00:23:12.760Z,48.19
2023-05-05T00:24:13.838Z,48.23
2023-05-05T00:25:12.750Z,48.21
2023-05-05T00:26:13.835Z,48.25
2023-05-05T00:27:13.838Z,48.22
2023-05-05T00:28:12.978Z,48.21
2023-05-05T00:29:12.960Z,48.19
2023-05-05T00:30:14.027Z,48.20
2023-05-05T00:31:14.056Z,48.22
2023-05-05T00:32:13.070Z,48.24
2023-05-05T00:33:13.175Z,48.23
2023-05-05T00:34:14.264Z,48.22
2023-05-05T00:35:13.229Z,48.21
2023-05-05T00:36:13.300Z,48.22
2023-05-05T00:37:13.351Z,48.22
2023-05-05T00:38:13.260Z,48.22
2023-05-05T00:39:14.320Z,48.25
2023-05-05T00:40:14.378Z,48.28
2023-05-05T00:41:14.701Z,48.23
2023-05-05T00:42:13.500Z,48.27
2023-05-05T00:43:13.532Z,48.20
2023-05-05T00:44:14.681Z,48.20
2023-05-05T00:45:13.539Z,48.23
2023-05-05T00:46:13.702Z,48.22
2023-05-05T00:47:14.613Z,48.20
2023-05-05T00:48:13.620Z,48.26
2023-05-05T00:49:13.710Z,48.22
2023-05-05T00:50:14.726Z,48.21
2023-05-05T00:51:13.790Z,48.25
2023-05-05T00:52:13.868Z,48.25
2023-05-05T00:53:14.903Z,48.24
2023-05-05T00:54:13.882Z,48.23
2023-05-05T00:55:13.905Z,48.25
2023-05-05T00:56:14.994Z,48.21
2023-05-05T00:57:15.016Z,48.24
2023-05-05T00:58:14.124Z,48.23
2023-05-05T00:59:15.121Z,48.24
2023-05-05T01:00:14.104Z,48.23
2023-05-05T01:01:15.227Z,48.26
2023-05-05T01:02:14.220Z,48.23
2023-05-05T01:03:14.363Z,48.22
2023-05-05T01:04:14.401Z,48.22
2023-05-05T01:05:14.365Z,48.25
2023-05-05T01:06:14.335Z,48.24
2023-05-05T01:07:15.552Z,48.19
2023-05-05T01:08:14.529Z,48.24
2023-05-05T01:09:14.610Z,48.22
2023-05-05T01:10:20.421Z,48.21
2023-05-05T01:11:15.513Z,48.27
2023-05-05T01:12:14.517Z,48.21
2023-05-05T01:13:15.492Z,48.19
2023-05-05T01:14:15.567Z,48.21
2023-05-05T01:15:15.500Z,48.25
2023-05-05T01:16:14.501Z,48.23
2023-05-05T01:17:14.489Z,48.24
2023-05-05T01:18:14.522Z,48.22
2023-05-05T01:19:14.462Z,48.22
2023-05-05T01:20:15.437Z,48.24
2023-05-05T01:21:15.517Z,48.24
2023-05-05T01:22:15.546Z,48.23
2023-05-05T01:23:14.473Z,48.23
2023-05-05T01:24:15.562Z,48.24
2023-05-05T01:25:14.588Z,48.23
2023-05-05T01:26:14.592Z,48.25
2023-05-05T01:27:14.701Z,48.28
2023-05-05T01:28:14.790Z,48.26
2023-05-05T01:29:14.860Z,48.22
2023-05-05T01:30:14.809Z,48.24
2023-05-05T01:31:14.880Z,48.23
2023-05-05T01:32:14.992Z,48.24
2023-05-05T01:33:14.987Z,48.24
2023-05-05T01:34:16.117Z,48.24
2023-05-05T01:35:15.026Z,48.20
2023-05-05T01:36:15.090Z,48.24
2023-05-05T01:37:16.048Z,48.24
2023-05-05T01:38:15.196Z,48.22
2023-05-05T01:39:15.205Z,48.22
2023-05-05T01:40:15.196Z,48.22
2023-05-05T01:41:15.296Z,48.21
2023-05-05T01:42:15.318Z,48.21
2023-05-05T01:43:15.309Z,48.25
2023-05-05T01:44:15.338Z,48.22
2023-05-05T01:45:15.410Z,48.22
2023-05-05T01:46:16.657Z,48.21
2023-05-05T01:47:15.564Z,48.21
2023-05-05T01:48:15.644Z,48.22
2023-05-05T01:49:15.656Z,48.23
2023-05-05T01:50:16.654Z,48.23
2023-05-05T01:51:15.633Z,48.23
2023-05-05T01:52:15.766Z,48.21
2023-05-05T01:53:16.856Z,48.21
2023-05-05T01:54:15.788Z,48.19
2023-05-05T01:55:16.924Z,48.19
2023-05-05T01:56:15.888Z,48.20
2023-05-05T01:57:17.021Z,48.17
2023-05-05T01:58:17.052Z,48.23
2023-05-05T01:59:16.095Z,48.23
2023-05-05T02:00:17.139Z,48.19
2023-05-05T02:01:16.181Z,48.18
2023-05-05T02:02:16.269Z,48.18
2023-05-05T02:03:16.393Z,48.24
2023-05-05T02:04:16.291Z,48.20
2023-05-05T02:05:17.418Z,48.22
2023-05-05T02:06:16.424Z,48.17
2023-05-05T02:07:16.483Z,48.24
2023-05-05T02:08:16.615Z,48.19
2023-05-05T02:09:16.622Z,48.22
2023-05-05T02:10:16.630Z,48.20
2023-05-05T02:11:17.637Z,48.21
2023-05-05T02:12:17.634Z,48.22
2023-05-05T02:13:16.946Z,48.21
2023-05-05T02:14:16.749Z,48.19
2023-05-05T02:15:17.836Z,48.21
2023-05-05T02:16:17.033Z,48.18
2023-05-05T02:17:17.954Z,48.18
2023-05-05T02:18:17.002Z,48.22
2023-05-05T02:19:18.056Z,48.21
2023-05-05T02:20:17.046Z,48.23
2023-05-05T02:21:17.127Z,48.22
2023-05-05T02:22:17.210Z,48.19
2023-05-05T02:23:17.173Z,48.19
2023-05-05T02:24:18.246Z,48.19
2023-05-05T02:25:18.343Z,48.21
2023-05-05T02:26:18.355Z,48.20
2023-05-05T02:27:17.412Z,48.21
2023-05-05T02:28:17.506Z,48.23
2023-05-05T02:29:18.499Z,48.23
2023-05-05T02:30:18.504Z,48.24
2023-05-05T02:31:18.701Z,48.23
2023-05-05T02:32:17.652Z,48.20
2023-05-05T02:33:18.657Z,48.25
2023-05-05T02:34:17.744Z,48.24
2023-05-05T02:35:17.827Z,48.21
2023-05-05T02:36:18.800Z,48.20
2023-05-05T02:37:17.938Z,48.21
2023-05-05T02:38:18.915Z,48.25
2023-05-05T02:39:19.001Z,48.20
2023-05-05T02:40:19.067Z,48.25
2023-05-05T02:41:19.110Z,48.24
2023-05-05T02:42:18.155Z,48.18
2023-05-05T02:43:19.180Z,48.18
2023-05-05T02:44:19.223Z,48.17
2023-05-05T02:45:18.418Z,48.21
2023-05-05T02:46:18.422Z,48.20
2023-05-05T02:47:19.386Z,48.19
2023-05-05T02:48:19.544Z,48.18
2023-05-05T02:49:18.561Z,48.21
2023-05-05T02:50:18.555Z,48.20
2023-05-05T02:51:19.635Z,48.20
2023-05-05T02:52:18.818Z,48.21
2023-05-05T02:53:18.691Z,48.25
2023-05-05T02:54:19.808Z,48.23
2023-05-05T02:55:18.899Z,48.19
2023-05-05T02:56:18.852Z,48.20
2023-05-05T02:57:18.950Z,48.22
2023-05-05T02:58:20.055Z,48.20
2023-05-05T02:59:19.128Z,48.23
2023-05-05T03:00:19.206Z,48.20
2023-05-05T03:01:19.250Z,48.22
2023-05-05T03:02:19.272Z,48.23
2023-05-05T03:03:20.346Z,48.20
2023-05-05T03:04:19.412Z,48.21
2023-05-05T03:05:19.384Z,48.21
2023-05-05T03:06:21.142Z,48.20
2023-05-05T03:07:19.531Z,48.19
2023-05-05T03:08:19.669Z,48.22
2023-05-05T03:09:19.704Z,48.17
2023-05-05T03:10:20.706Z,48.21
2023-05-05T03:11:20.816Z,48.18
2023-05-05T03:12:19.819Z,48.16
2023-05-05T03:13:20.921Z,48.19
2023-05-05T03:14:19.954Z,48.20
2023-05-05T03:15:20.077Z,48.20
2023-05-05T03:16:21.208Z,48.17
2023-05-05T03:17:20.143Z,48.15
2023-05-05T03:18:21.117Z,48.19
2023-05-05T03:19:20.288Z,48.18
2023-05-05T03:20:21.253Z,48.17
2023-05-05T03:21:20.256Z,48.14
2023-05-05T03:22:20.433Z,48.17
2023-05-05T03:23:20.394Z,48.18
2023-05-05T03:24:20.543Z,48.18
2023-05-05T03:25:21.639Z,48.18
2023-05-05T03:26:20.600Z,48.19
2023-05-05T03:27:20.691Z,48.20
2023-05-05T03:28:20.761Z,48.18
2023-05-05T03:29:20.720Z,48.19
2023-05-05T03:30:21.790Z,48.17
2023-05-05T03:31:21.871Z,48.15
2023-05-05T03:32:20.934Z,48.17
2023-05-05T03:33:21.971Z,48.16
2023-05-05T03:34:21.063Z,48.18
2023-05-05T03:35:22.197Z,48.16
2023-05-05T03:36:22.222Z,48.15
2023-05-05T03:37:21.186Z,48.19
2023-05-05T03:38:22.326Z,48.15
2023-05-05T03:39:22.354Z,48.16
2023-05-05T03:40:32.671Z,48.17
2023-05-05T03:41:22.367Z,48.18
2023-05-05T03:42:22.357Z,48.17
2023-05-05T03:43:22.409Z,48.17
2023-05-05T03:44:21.364Z,48.18
2023-05-05T03:45:21.475Z,48.17
2023-05-05T03:46:21.361Z,48.13
2023-05-05T03:47:22.425Z,48.15
2023-05-05T03:48:21.328Z,48.17
2023-05-05T03:49:21.403Z,48.13
2023-05-05T03:50:21.338Z,48.12
2023-05-05T03:51:21.295Z,48.15
2023-05-05T03:52:21.335Z,48.13
2023-05-05T03:53:21.386Z,48.13
2023-05-05T03:54:21.263Z,48.12
2023-05-05T03:55:22.297Z,48.12
2023-05-05T03:56:21.269Z,48.12
2023-05-05T03:57:22.272Z,48.11
2023-05-05T03:58:22.283Z,48.11
2023-05-05T03:59:21.222Z,48.11
2023-05-05T04:00:22.256Z,48.12
2023-05-05T04:01:21.248Z,48.12
2023-05-05T04:02:21.266Z,48.14
2023-05-05T04:03:22.522Z,48.11
2023-05-05T04:04:22.458Z,48.11
2023-05-05T04:05:22.421Z,48.14
2023-05-05T04:06:21.492Z,48.15
2023-05-05T04:07:22.593Z,48.15
2023-05-05T04:08:22.630Z,48.12
2023-05-05T04:09:21.613Z,48.16
2023-05-05T04:10:21.776Z,48.17
2023-05-05T04:11:21.760Z,48.12
2023-05-05T04:12:21.801Z,48.14
2023-05-05T04:13:22.904Z,48.13
2023-05-05T04:14:21.919Z,48.12
2023-05-05T04:15:21.935Z,48.16
2023-05-05T04:16:23.236Z,48.10
2023-05-05T04:17:22.155Z,48.11
2023-05-05T04:18:23.178Z,48.10
2023-05-05T04:19:22.297Z,48.10
2023-05-05T04:20:22.349Z,48.09
2023-05-05T04:21:22.398Z,48.12
2023-05-05T04:22:22.423Z,48.05
2023-05-05T04:23:23.490Z,48.06
2023-05-05T04:24:22.544Z,48.04
2023-05-05T04:25:22.605Z,48.03
2023-05-05T04:26:22.700Z,48.05
2023-05-05T04:27:23.711Z,48.02
2023-05-05T04:28:22.719Z,48.05
2023-05-05T04:29:22.826Z,48.05
2023-05-05T04:30:22.893Z,48.03
2023-05-05T04:31:22.919Z,48.04
2023-05-05T04:32:24.041Z,48.02
2023-05-05T04:33:24.041Z,48.06
2023-05-05T04:34:24.076Z,48.03
2023-05-05T04:35:24.159Z,48.04
2023-05-05T04:36:23.251Z,48.00
2023-05-05T04:37:23.284Z,48.03
2023-05-05T04:38:24.374Z,48.02
2023-05-05T04:39:23.411Z,48.05
2023-05-05T04:40:23.555Z,48.05
2023-05-05T04:41:23.625Z,48.05
2023-05-05T04:42:24.601Z,48.03
2023-05-05T04:43:23.584Z,48.03
2023-05-05T04:44:24.706Z,48.02
2023-05-05T04:45:23.777Z,48.04
2023-05-05T04:46:24.933Z,48.03
2023-05-05T04:47:23.877Z,48.04
2023-05-05T04:48:23.899Z,47.99
2023-05-05T04:49:24.016Z,47.98
2023-05-05T04:50:24.148Z,47.98
2023-05-05T04:51:24.142Z,47.94
2023-05-05T04:52:24.227Z,47.93
2023-05-05T04:53:25.212Z,47.95
2023-05-05T04:54:25.276Z,47.91
2023-05-05T04:55:25.313Z,47.88
2023-05-05T04:56:25.480Z,47.88
2023-05-05T04:57:24.488Z,47.88
2023-05-05T04:58:24.468Z,47.88
2023-05-05T04:59:25.616Z,47.83
2023-05-05T05:00:24.648Z,47.84
2023-05-05T05:01:24.682Z,47.83
2023-05-05T05:02:24.863Z,47.79
2023-05-05T05:03:26.000Z,47.77
2023-05-05T05:04:25.910Z,47.77
2023-05-05T05:05:24.971Z,47.72
2023-05-05T05:06:25.147Z,47.76
2023-05-05T05:07:26.112Z,47.73
2023-05-05T05:08:25.194Z,47.70
2023-05-05T05:09:25.192Z,47.71
2023-05-05T05:10:26.240Z,47.69
2023-05-05T05:11:25.393Z,47.68
2023-05-05T05:12:25.406Z,47.67
2023-05-05T05:13:25.580Z,47.69
2023-05-05T05:14:25.464Z,47.68
2023-05-05T05:15:25.540Z,47.67
2023-05-05T05:16:25.671Z,47.63
2023-05-05T05:17:26.598Z,47.64
2023-05-05T05:18:25.639Z,47.65
2023-05-05T05:19:25.770Z,47.65
2023-05-05T05:20:25.790Z,47.75
2023-05-05T05:21:26.949Z,47.87
2023-05-05T05:22:26.905Z,47.75
2023-05-05T05:23:26.936Z,47.77
2023-05-05T05:24:25.953Z,47.79
2023-05-05T05:25:27.021Z,47.80
2023-05-05T05:26:26.189Z,47.77
2023-05-05T05:27:26.100Z,47.71
2023-05-05T05:28:26.141Z,47.76
2023-05-05T05:29:26.287Z,47.81
2023-05-05T05:30:26.258Z,47.83
2023-05-05T05:31:26.433Z,47.82
2023-05-05T05:32:26.350Z,47.79
2023-05-05T05:33:28.293Z,47.76
2023-05-05T05:34:26.908Z,47.86
2023-05-05T05:35:26.578Z,47.82
2023-05-05T05:36:26.628Z,47.86
2023-05-05T05:37:27.669Z,47.98
2023-05-05T05:38:26.649Z,48.09
2023-05-05T05:39:26.705Z,48.14
2023-05-05T05:40:26.704Z,48.05
2023-05-05T05:41:26.976Z,48.08
2023-05-05T05:42:27.797Z,48.14
2023-05-05T05:43:28.210Z,48.04
2023-05-05T05:44:28.748Z,48.12
2023-05-05T05:45:27.351Z,48.43
2023-05-05T05:46:26.888Z,48.45
2023-05-05T05:47:26.753Z,48.93
2023-05-05T05:48:26.794Z,49.41
2023-05-05T05:49:26.954Z,49.07
2023-05-05T05:50:28.035Z,49.02
2023-05-05T05:51:26.986Z,49.22
2023-05-05T05:52:33.811Z,49.35
2023-05-05T05:53:26.776Z,49.47
2023-05-05T05:54:26.810Z,49.71
2023-05-05T05:55:26.747Z,49.66
2023-05-05T05:56:26.768Z,50.02
2023-05-05T05:57:27.864Z,50.00
2023-05-05T05:58:26.734Z,50.05
2023-05-05T05:59:26.814Z,50.25
2023-05-05T06:00:27.790Z,50.39
2023-05-05T06:01:26.954Z,50.60
2023-05-05T06:02:27.868Z,50.84
2023-05-05T06:03:26.996Z,51.03
2023-05-05T06:04:26.838Z,52.20
2023-05-05T06:05:26.704Z,51.41
2023-05-05T06:06:27.748Z,51.65
2023-05-05T06:07:26.831Z,51.75
2023-05-05T06:08:26.766Z,51.82
2023-05-05T06:09:26.693Z,52.02
2023-05-05T06:10:28.366Z,52.13
2023-05-05T06:11:27.668Z,52.29
2023-05-05T06:12:27.639Z,52.42
2023-05-05T06:13:26.665Z,52.95
2023-05-05T06:14:26.635Z,53.00
2023-05-05T06:15:26.618Z,52.98
2023-05-05T06:16:26.732Z,53.10
2023-05-05T06:17:27.650Z,52.95
2023-05-05T06:18:26.804Z,53.15
2023-05-05T06:19:26.628Z,52.89
2023-05-05T06:20:26.646Z,53.16
2023-05-05T06:21:26.617Z,53.39
2023-05-05T06:22:26.599Z,53.47
2023-05-05T06:23:27.607Z,53.30
2023-05-05T06:24:27.676Z,53.33
2023-05-05T06:25:26.551Z,53.36
2023-05-05T06:26:26.663Z,53.22
2023-05-05T06:27:26.763Z,53.29
2023-05-05T06:28:27.780Z,53.36
2023-05-05T06:29:26.883Z,53.47
2023-05-05T06:30:26.908Z,53.49
2023-05-05T06:31:27.102Z,53.46
2023-05-05T06:32:27.034Z,53.64
2023-05-05T06:33:27.993Z,53.66
2023-05-05T06:34:28.118Z,53.62
2023-05-05T06:35:27.107Z,53.98
2023-05-05T06:36:27.246Z,54.14
2023-05-05T06:37:27.246Z,54.06
2023-05-05T06:38:27.302Z,53.95
2023-05-05T06:39:27.336Z,53.96
2023-05-05T06:40:27.374Z,53.88
2023-05-05T06:41:28.460Z,53.79
2023-05-05T06:42:27.436Z,53.67
2023-05-05T06:43:27.494Z,53.64
2023-05-05T06:44:27.537Z,53.93
2023-05-05T06:45:28.523Z,53.76
2023-05-05T06:46:27.554Z,53.75
2023-05-05T06:47:28.517Z,53.82
2023-05-05T06:48:28.848Z,53.80
2023-05-05T06:49:27.513Z,53.75
2023-05-05T06:50:27.528Z,53.85
2023-05-05T06:51:28.510Z,53.95
2023-05-05T06:52:28.046Z,53.73
2023-05-05T06:53:28.547Z,50.83
2023-05-05T06:54:27.595Z,50.28
2023-05-05T06:55:27.678Z,51.56
2023-05-05T06:56:27.768Z,52.27
2023-05-05T06:57:27.968Z,52.00
2023-05-05T06:58:28.643Z,51.89
2023-05-05T06:59:27.784Z,51.82
2023-05-05T07:00:27.710Z,51.79
2023-05-05T07:01:27.686Z,51.76
2023-05-05T07:02:27.733Z,51.67
2023-05-05T07:03:28.691Z,51.56
2023-05-05T07:04:28.709Z,51.40
2023-05-05T07:05:27.703Z,51.38
2023-05-05T07:06:28.701Z,51.54
2023-05-05T07:07:27.745Z,51.40
2023-05-05T07:08:27.702Z,51.28
2023-05-05T07:09:27.703Z,51.20
2023-05-05T07:10:27.727Z,51.22
2023-05-05T07:11:27.724Z,51.16
2023-05-05T07:12:28.961Z,51.14
2023-05-05T07:13:28.773Z,50.99
2023-05-05T07:14:28.875Z,50.87
2023-05-05T07:15:29.650Z,50.72
2023-05-05T07:16:27.812Z,50.72
2023-05-05T07:17:27.775Z,50.69
2023-05-05T07:18:28.787Z,50.44
2023-05-05T07:19:27.781Z,50.54
2023-05-05T07:20:27.843Z,50.56
2023-05-05T07:21:28.857Z,50.46
2023-05-05T07:22:27.910Z,50.32
2023-05-05T07:23:28.974Z,50.18
2023-05-05T07:24:29.023Z,49.97
2023-05-05T07:25:28.087Z,50.06
2023-05-05T07:26:29.192Z,49.80
2023-05-05T07:27:28.266Z,49.88
2023-05-05T07:28:28.523Z,49.90
2023-05-05T07:29:28.353Z,50.00
2023-05-05T07:30:28.408Z,50.01
2023-05-05T07:31:28.553Z,50.04
2023-05-05T07:32:28.488Z,50.09
2023-05-05T07:33:28.486Z,50.01
2023-05-05T07:34:29.592Z,49.92
2023-05-05T07:35:28.605Z,49.83
2023-05-05T07:36:29.644Z,49.81
2023-05-05T07:37:28.737Z,50.18
2023-05-05T07:38:28.733Z,50.15
2023-05-05T07:39:28.753Z,50.16
2023-05-05T07:40:29.895Z,50.22
2023-05-05T07:41:29.792Z,50.25
2023-05-05T07:42:29.793Z,50.27
2023-05-05T07:43:28.823Z,50.31
2023-05-05T07:44:28.934Z,50.30
2023-05-05T07:45:29.949Z,50.34
2023-05-05T07:46:29.030Z,50.25
2023-05-05T07:47:29.135Z,50.48
2023-05-05T07:48:29.986Z,50.48
2023-05-05T07:49:29.948Z,50.61
2023-05-05T07:50:30.046Z,50.37
2023-05-05T07:51:29.029Z,50.54
2023-05-05T07:52:43.602Z,50.35
2023-05-05T07:53:30.031Z,50.46
2023-05-05T07:54:30.048Z,50.59
2023-05-05T07:55:29.124Z,50.66
2023-05-05T07:56:30.150Z,50.73
2023-05-05T07:57:29.184Z,50.85
2023-05-05T07:58:29.270Z,50.94
2023-05-05T07:59:30.219Z,50.94
2023-05-05T08:00:29.420Z,50.92
2023-05-05T08:01:29.294Z,50.96
2023-05-05T08:02:30.317Z,51.05
2023-05-05T08:03:29.401Z,51.16
2023-05-05T08:04:29.342Z,51.11
2023-05-05T08:05:29.220Z,51.12
2023-05-05T08:06:30.228Z,51.14
2023-05-05T08:07:29.328Z,51.10
2023-05-05T08:08:29.371Z,51.10
2023-05-05T08:09:29.365Z,51.20
2023-05-05T08:10:29.348Z,51.21
2023-05-05T08:11:30.362Z,51.22
2023-05-05T08:12:30.396Z,51.11
2023-05-05T08:13:29.380Z,51.16
2023-05-05T08:14:30.526Z,51.16
2023-05-05T08:15:29.463Z,51.13
2023-05-05T08:16:30.609Z,51.14
2023-05-05T08:17:30.510Z,51.17
2023-05-05T08:18:30.516Z,51.14
2023-05-05T08:19:30.575Z,51.12
2023-05-05T08:20:29.629Z,51.15
2023-05-05T08:21:29.686Z,51.14
2023-05-05T08:22:29.636Z,51.11
2023-05-05T08:23:30.739Z,51.08
2023-05-05T08:24:30.699Z,51.13
2023-05-05T08:25:30.813Z,51.09
2023-05-05T08:26:29.759Z,51.03
2023-05-05T08:27:30.778Z,51.02
2023-05-05T08:28:30.814Z,51.03
2023-05-05T08:29:30.907Z,51.07
2023-05-05T08:30:30.946Z,50.95
2023-05-05T08:31:30.001Z,50.95
2023-05-05T08:32:30.211Z,50.92
2023-05-05T08:33:30.013Z,50.94
2023-05-05T08:34:30.084Z,50.86
2023-05-05T08:35:31.055Z,50.93
2023-05-05T08:36:31.134Z,50.88
2023-05-05T08:37:30.168Z,50.85
2023-05-05T08:38:31.233Z,50.74
2023-05-05T08:39:30.202Z,50.75
2023-05-05T08:40:30.222Z,50.74
2023-05-05T08:41:30.287Z,50.75
2023-05-05T08:42:36.937Z,50.71
2023-05-05T08:43:31.603Z,50.58
2023-05-05T08:44:30.353Z,50.87
2023-05-05T08:45:31.215Z,50.93
2023-05-05T08:46:31.285Z,50.98
2023-05-05T08:47:30.366Z,51.00
2023-05-05T08:48:30.458Z,51.41
2023-05-05T08:49:31.273Z,50.89
2023-05-05T08:50:30.268Z,49.73
2023-05-05T08:51:30.273Z,50.41
2023-05-05T08:52:30.245Z,50.27
2023-05-05T08:53:30.273Z,49.55
2023-05-05T08:54:30.157Z,49.65
2023-05-05T08:55:30.149Z,48.71
2023-05-05T08:56:31.235Z,49.55
2023-05-05T08:57:31.148Z,49.14
2023-05-05T08:58:31.506Z,49.02
2023-05-05T08:59:30.196Z,49.07
2023-05-05T09:00:31.115Z,49.02
2023-05-05T09:01:30.230Z,49.08
2023-05-05T09:02:30.222Z,49.05
2023-05-05T09:03:30.196Z,48.89
2023-05-05T09:04:30.224Z,48.94
2023-05-05T09:05:30.102Z,48.91
2023-05-05T09:06:30.156Z,48.93
2023-05-05T09:07:30.077Z,48.92
2023-05-05T09:08:30.176Z,48.87
2023-05-05T09:09:31.144Z,48.87
2023-05-05T09:10:30.037Z,48.88
2023-05-05T09:11:30.099Z,48.88
2023-05-05T09:12:30.221Z,48.84
2023-05-05T09:13:30.150Z,48.85
2023-05-05T09:14:30.093Z,48.77
2023-05-05T09:15:30.055Z,48.87
2023-05-05T09:16:30.036Z,48.86
2023-05-05T09:17:31.029Z,48.85
2023-05-05T09:18:31.087Z,48.79
2023-05-05T09:19:30.065Z,48.76
2023-05-05T09:20:30.239Z,48.74
2023-05-05T09:21:30.056Z,48.73
2023-05-05T09:22:29.964Z,48.66
2023-05-05T09:23:31.034Z,48.74
2023-05-05T09:24:29.991Z,48.64
2023-05-05T09:25:30.007Z,48.68
2023-05-05T09:26:29.944Z,48.66
2023-05-05T09:27:29.944Z,48.63
2023-05-05T09:28:31.059Z,48.40
2023-05-05T09:29:29.926Z,48.58
2023-05-05T09:30:30.930Z,48.52
2023-05-05T09:31:29.992Z,48.51
2023-05-05T09:32:30.951Z,48.49
2023-05-05T09:33:29.989Z,48.46
2023-05-05T09:34:29.944Z,48.44
2023-05-05T09:35:29.978Z,48.39
2023-05-05T09:36:29.982Z,48.44
2023-05-05T09:37:29.890Z,48.43
2023-05-05T09:38:30.879Z,48.40
2023-05-05T09:39:30.953Z,48.44
2023-05-05T09:40:30.858Z,48.43
2023-05-05T09:41:29.899Z,48.42
2023-05-05T09:42:29.852Z,48.47
2023-05-05T09:43:29.853Z,48.49
2023-05-05T09:44:30.816Z,48.51
2023-05-05T09:45:29.891Z,48.44
2023-05-05T09:46:29.941Z,48.43
2023-05-05T09:47:30.253Z,48.46
2023-05-05T09:48:30.142Z,48.46
2023-05-05T09:49:29.815Z,48.46
2023-05-05T09:50:31.207Z,48.60
2023-05-05T09:51:30.772Z,48.61
2023-05-05T09:52:30.846Z,49.54
2023-05-05T09:53:31.105Z,49.39
2023-05-05T09:54:29.857Z,49.18
2023-05-05T09:55:29.886Z,49.05
2023-05-05T09:56:29.997Z,48.80
2023-05-05T09:57:30.018Z,48.35
2023-05-05T09:58:31.108Z,47.89
2023-05-05T09:59:30.041Z,48.03
2023-05-05T10:00:30.067Z,46.88
2023-05-05T10:01:30.114Z,46.47
2023-05-05T10:02:30.146Z,46.59
2023-05-05T10:03:30.088Z,46.64
2023-05-05T10:04:30.231Z,46.18
2023-05-05T10:05:30.139Z,46.08
2023-05-05T10:06:30.151Z,45.87
2023-05-05T10:07:31.240Z,45.73
2023-05-05T10:08:30.368Z,45.45
2023-05-05T10:09:31.266Z,45.42
2023-05-05T10:10:31.270Z,45.78
2023-05-05T10:11:30.288Z,45.96
2023-05-05T10:12:30.413Z,46.32
2023-05-05T10:13:30.384Z,46.24
2023-05-05T10:14:31.408Z,46.41
2023-05-05T10:15:30.420Z,46.65
2023-05-05T10:16:31.515Z,46.41
2023-05-05T10:17:31.545Z,46.79
2023-05-05T10:18:31.471Z,46.14
2023-05-05T10:19:31.509Z,46.47
2023-05-05T10:20:30.469Z,46.37
2023-05-05T10:21:31.514Z,46.40
2023-05-05T10:22:30.511Z,46.65
2023-05-05T10:23:30.459Z,46.78
2023-05-05T10:24:30.541Z,46.72
2023-05-05T10:25:30.445Z,46.87
2023-05-05T10:26:30.475Z,46.86
2023-05-05T10:27:30.456Z,46.91
2023-05-05T10:28:31.485Z,46.74
2023-05-05T10:29:30.510Z,46.87
2023-05-05T10:30:30.515Z,46.71
2023-05-05T10:31:30.517Z,46.85
2023-05-05T10:33:32.221Z,47.48
2023-05-05T10:34:30.462Z,47.28
2023-05-05T10:35:30.408Z,47.21
2023-05-05T10:36:31.407Z,46.97
2023-05-05T10:37:30.418Z,47.12
2023-05-05T10:38:31.567Z,47.05
2023-05-05T10:39:30.475Z,46.75
2023-05-05T10:40:30.545Z,45.97
2023-05-05T10:41:31.462Z,45.46
2023-05-05T10:42:30.462Z,45.41
2023-05-05T10:43:30.375Z,46.40
2023-05-05T10:44:31.752Z,46.44
2023-05-05T10:45:30.577Z,46.35
2023-05-05T10:46:30.404Z,46.25
2023-05-05T10:47:30.477Z,46.48
2023-05-05T10:48:30.339Z,46.62
2023-05-05T10:49:31.437Z,46.74
2023-05-05T10:50:30.390Z,46.87
2023-05-05T10:51:39.266Z,47.09
2023-05-05T10:52:31.358Z,47.29
2023-05-05T10:53:31.288Z,47.34
2023-05-05T10:54:30.393Z,47.40
2023-05-05T10:55:30.310Z,47.50
2023-05-05T10:56:30.315Z,47.51
2023-05-05T10:57:30.308Z,47.66
2023-05-05T10:58:31.370Z,47.66
2023-05-05T10:59:30.241Z,47.70
2023-05-05T11:00:31.219Z,47.71
2023-05-05T11:01:31.294Z,47.81
2023-05-05T11:02:30.312Z,47.81
2023-05-05T11:03:30.309Z,47.89
2023-05-05T11:04:30.271Z,47.88
2023-05-05T11:05:31.265Z,47.96
2023-05-05T11:06:30.243Z,47.97
2023-05-05T11:07:31.227Z,48.03
2023-05-05T11:08:30.167Z,48.00
2023-05-05T11:09:31.236Z,47.95
2023-05-05T11:10:30.220Z,47.96
2023-05-05T11:11:31.217Z,47.92
2023-05-05T11:12:30.484Z,47.94
2023-05-05T11:13:31.212Z,47.96
2023-05-05T11:14:30.272Z,47.99
2023-05-05T11:15:31.431Z,47.97
2023-05-05T11:16:30.458Z,48.04
2023-05-05T11:17:30.390Z,47.99
2023-05-05T11:18:31.410Z,47.99
2023-05-05T11:19:30.463Z,47.99
2023-05-05T11:20:31.579Z,47.97
2023-05-05T11:21:31.546Z,47.90
2023-05-05T11:22:30.632Z,47.91
2023-05-05T11:23:30.674Z,47.94
2023-05-05T11:24:31.743Z,47.91
2023-05-05T11:25:31.747Z,47.87
2023-05-05T11:26:30.728Z,47.85
2023-05-05T11:27:30.804Z,47.92
2023-05-05T11:28:30.985Z,47.79
2023-05-05T11:29:30.848Z,47.90
2023-05-05T11:30:30.907Z,47.91
2023-05-05T11:31:32.039Z,47.91
2023-05-05T11:32:32.017Z,47.96
2023-05-05T11:33:31.166Z,47.88
2023-05-05T11:34:31.101Z,47.85
2023-05-05T11:35:31.165Z,47.82
2023-05-05T11:36:32.214Z,47.83
2023-05-05T11:37:31.312Z,47.72
2023-05-05T11:38:31.341Z,47.79
2023-05-05T11:39:31.709Z,47.74
2023-05-05T11:40:32.446Z,47.61
2023-05-05T11:41:32.558Z,47.58
2023-05-05T11:42:32.568Z,47.56
2023-05-05T11:43:31.591Z,47.58
2023-05-05T11:44:31.754Z,47.54
2023-05-05T11:45:31.772Z,47.68
2023-05-05T11:46:31.727Z,47.65
2023-05-05T11:47:31.840Z,47.61
2023-05-05T11:48:32.822Z,47.57
2023-05-05T11:49:31.859Z,47.64
2023-05-05T11:50:31.927Z,47.63
2023-05-05T11:51:31.940Z,47.65
2023-05-05T11:52:32.987Z,47.55
2023-05-05T11:53:33.036Z,47.46
2023-05-05T11:54:32.088Z,47.48
2023-05-05T11:55:32.210Z,47.49
2023-05-05T11:56:32.151Z,47.43
2023-05-05T11:57:33.253Z,47.58
2023-05-05T11:58:33.237Z,47.58
2023-05-05T11:59:32.279Z,47.47
2023-05-05T12:00:32.484Z,47.43
2023-05-05T12:01:32.440Z,47.23
2023-05-05T12:02:32.556Z,47.31
2023-05-05T12:03:32.626Z,47.24
2023-05-05T12:04:32.688Z,47.11
2023-05-05T12:05:36.322Z,47.07
2023-05-05T12:06:32.592Z,47.10
2023-05-05T12:07:32.544Z,47.15
2023-05-05T12:08:33.602Z,47.09
2023-05-05T12:09:33.605Z,47.15
2023-05-05T12:10:32.493Z,47.17
2023-05-05T12:11:33.578Z,47.19
2023-05-05T12:12:32.519Z,47.26
2023-05-05T12:13:32.525Z,47.41
2023-05-05T12:14:32.452Z,47.46
2023-05-05T12:15:33.459Z,47.45
2023-05-05T12:16:32.605Z,47.45
2023-05-05T12:17:33.531Z,47.50
2023-05-05T12:18:32.503Z,47.60
2023-05-05T12:19:33.559Z,47.50
2023-05-05T12:20:32.532Z,47.68
2023-05-05T12:21:32.431Z,47.92
2023-05-05T12:22:32.470Z,47.72
2023-05-05T12:23:32.457Z,47.66
2023-05-05T12:24:32.458Z,47.91
2023-05-05T12:25:32.494Z,47.92
2023-05-05T12:26:32.470Z,47.93
2023-05-05T12:27:32.414Z,47.93
2023-05-05T12:28:32.342Z,47.96
2023-05-05T12:29:33.498Z,48.00
2023-05-05T12:30:32.610Z,47.94
2023-05-05T12:31:32.630Z,47.90
2023-05-05T12:32:32.916Z,47.87
2023-05-05T12:33:32.572Z,47.82
2023-05-05T12:34:32.604Z,47.95
2023-05-05T12:35:32.736Z,48.13
2023-05-05T12:36:32.806Z,48.26
2023-05-05T12:37:32.759Z,48.41
2023-05-05T12:38:32.886Z,48.20
2023-05-05T12:39:32.900Z,48.32
2023-05-05T12:40:33.075Z,48.15
2023-05-05T12:41:33.011Z,48.05
2023-05-05T12:42:34.094Z,48.11
2023-05-05T12:43:33.067Z,48.32
2023-05-05T12:44:34.229Z,48.55
2023-05-05T12:45:33.149Z,48.56
2023-05-05T12:46:34.295Z,48.71
2023-05-05T12:47:33.314Z,48.72
2023-05-05T12:48:33.381Z,48.65
2023-05-05T12:49:34.370Z,48.81
2023-05-05T12:50:34.448Z,48.93
2023-05-05T12:51:33.466Z,48.84
2023-05-05T12:52:33.550Z,48.95
2023-05-05T12:53:33.549Z,48.99